Time;durP1;ratioP1;P1;durP2;ratioP2;P2;SDS_P1;SDS_P2;PMS_P1;PMS_P2;Temp;Humidity;BMP_temperature;BMP_pressure;BME280_temperature;BME280_humidity;BME280_pressure;Samples;Min_cycle;Max_cycle;Signal;HPM_P1;HPM_P2
2023/05/16 00:01:28;;;;;;;0.20;0.20;;;;;;;12.11;57.01;100335.69;5133948;27;20161;-71
2023/05/16 00:03:56;;;;;;;0.20;0.20;;;;;;;12.13;57.23;100343.63;5112617;27;20534;-71
2023/05/16 00:06:22;;;;;;;0.10;0.10;;;;;;;12.12;57.92;100333.75;5106074;27;20039;-72
2023/05/16 00:08:48;;;;;;;0.10;0.10;;;;;;;12.09;58.25;100331.56;5140894;27;20584;-72
2023/05/16 00:11:16;;;;;;;0.15;0.15;;;;;;;12.05;58.03;100318.41;5124212;27;20043;-72
2023/05/16 00:13:46;;;;;;;;;;;;;;;12.07;57.86;100328.28;5109865;27;20531;-72
2023/05/16 00:16:13;;;;;;;0.28;0.20;;;;;;;12.08;57.75;100324.44;5085290;27;19922;-72
2023/05/16 00:18:39;;;;;;;0.10;0.10;;;;;;;12.09;58.10;100331.56;5145235;27;20046;-71
2023/05/16 00:21:06;;;;;;;0.10;0.10;;;;;;;11.98;58.71;100327.97;5104507;27;20150;-72
2023/05/16 00:23:32;;;;;;;0.20;0.20;;;;;;;11.94;59.38;100335.06;5109989;27;20061;-72
2023/05/16 00:25:58;;;;;;;0.50;0.30;;;;;;;11.91;59.15;100331.78;5088395;27;20050;-72
2023/05/16 00:28:24;;;;;;;0.15;0.15;;;;;;;11.90;59.09;100327.38;5101061;28;20541;-71
2023/05/16 00:30:52;;;;;;;0.40;0.25;;;;;;;11.93;58.05;100326.03;5104872;28;20375;-72
2023/05/16 00:33:19;;;;;;;0.85;0.30;;;;;;;11.95;57.92;100321.09;5085484;28;20052;-71
2023/05/16 00:35:45;;;;;;;0.30;0.30;;;;;;;11.98;58.36;100325.22;5098632;27;20510;-71
2023/05/16 00:38:11;;;;;;;0.88;0.30;;;;;;;12.01;58.68;100319.19;5122561;27;20079;-71
2023/05/16 00:40:38;;;;;;;0.32;0.20;;;;;;;12.02;59.49;100323.59;5121150;27;20043;-73
2023/05/16 00:43:04;;;;;;;0.30;0.20;;;;;;;11.98;60.40;100326.03;5107749;27;20044;-72
2023/05/16 00:45:30;;;;;;;0.45;0.20;;;;;;;11.97;60.51;100324.38;5126136;27;20043;-72
2023/05/16 00:47:58;;;;;;;0.55;0.25;;;;;;;11.92;60.70;100330.66;5105726;27;20065;-72
2023/05/16 00:50:24;;;;;;;0.30;0.30;;;;;;;11.90;60.63;100332.88;5126342;27;20051;-71
2023/05/16 00:52:50;;;;;;;0.20;0.20;;;;;;;11.96;60.37;100343.84;5124103;27;20044;-72
2023/05/16 00:55:17;;;;;;;0.10;0.10;;;;;;;11.91;60.40;100337.25;5103486;27;20047;-71
2023/05/16 00:57:44;;;;;;;0.30;0.30;;;;;;;11.68;61.04;100346.78;5134225;27;20051;-71
2023/05/16 01:00:11;;;;;;;0.10;0.10;;;;;;;11.44;61.71;100349.16;5117194;27;20050;-72
2023/05/16 01:02:37;;;;;;;0.10;0.10;;;;;;;11.29;61.05;100347.19;5096765;27;20542;-72
2023/05/16 01:05:07;;;;;;;0.10;0.10;;;;;;;11.21;60.33;100346.56;5067872;28;20422;-71
2023/05/16 01:07:34;;;;;;;0.30;0.15;;;;;;;11.07;60.22;100345.41;5109383;27;21121;-71
2023/05/16 01:10:01;;;;;;;0.20;0.20;;;;;;;10.92;60.33;100343.41;5087558;27;20039;-71
2023/05/16 01:12:36;;;;;;;0.10;0.10;;;;;;;10.70;60.55;100352.56;5071362;27;20138;-72
2023/05/16 01:15:06;;;;;;;0.10;0.10;;;;;;;10.54;61.06;100348.06;5125114;27;20067;-71
2023/05/16 01:17:42;;;;;;;0.28;0.20;;;;;;;10.39;61.25;100346.81;5125436;27;20061;-71
2023/05/16 01:20:19;;;;;;;0.10;0.10;;;;;;;10.24;61.80;100346.69;5123667;27;20051;-71
2023/05/16 01:22:59;;;;;;;0.10;0.10;;;;;;;10.20;61.76;100358.13;5123146;27;20050;-71
2023/05/16 01:25:35;;;;;;;0.17;0.17;;;;;;;10.19;62.07;100350.19;5065998;28;20097;-72
2023/05/16 01:28:04;;;;;;;0.10;0.10;;;;;;;10.19;62.15;100351.00;5121219;27;20125;-72
2023/05/16 01:30:34;;;;;;;0.10;0.10;;;;;;;10.19;62.00;100336.53;5122655;27;20051;-75
2023/05/16 01:33:01;;;;;;;0.10;0.10;;;;;;;10.16;62.50;100346.06;5096524;28;20054;-75
2023/05/16 01:35:27;;;;;;;0.10;0.10;;;;;;;10.16;62.80;100348.78;5050952;28;20054;-74
2023/05/16 01:38:04;;;;;;;0.10;0.10;;;;;;;10.16;62.47;100345.25;5110136;27;20050;-74
2023/05/16 01:40:41;;;;;;;0.10;0.10;;;;;;;10.16;62.77;100348.78;5098440;27;20134;-74
2023/05/16 01:43:16;;;;;;;0.20;0.20;;;;;;;10.16;62.65;100358.91;5095651;27;20047;-74
2023/05/16 01:45:50;;;;;;;0.20;0.20;;;;;;;10.14;62.96;100361.88;5089463;27;20581;-74
2023/05/16 01:48:21;;;;;;;0.10;0.10;;;;;;;10.11;62.76;100353.38;5096515;27;20043;-74
2023/05/16 01:50:53;;;;;;;0.10;0.10;;;;;;;10.05;62.94;100350.59;5101640;27;20047;-73
2023/05/16 01:53:24;;;;;;;0.38;0.25;;;;;;;10.02;63.26;100347.56;5105252;27;20051;-73
2023/05/16 01:55:51;;;;;;;0.20;0.10;;;;;;;9.96;63.05;100351.31;5100044;28;20055;-75
2023/05/16 01:58:22;;;;;;;0.10;0.10;;;;;;;9.92;63.40;100348.28;5101178;27;20059;-74
2023/05/16 02:00:48;;;;;;;0.10;0.10;;;;;;;9.93;63.39;100348.03;5117371;27;20039;-74
2023/05/16 02:03:14;;;;;;;0.10;0.10;;;;;;;9.93;63.42;100358.13;5119476;27;20039;-74
2023/05/16 02:05:40;;;;;;;0.20;0.20;;;;;;;9.89;63.44;100348.78;5108492;27;20055;-74
2023/05/16 02:08:10;;;;;;;0.10;0.10;;;;;;;9.91;63.51;100355.66;5076524;28;20078;-74
2023/05/16 02:10:36;;;;;;;0.10;0.10;;;;;;;9.90;63.91;100353.97;5074551;27;20051;-74
2023/05/16 02:13:02;;;;;;;0.10;0.10;;;;;;;9.92;63.87;100351.00;5095605;27;20065;-74
2023/05/16 02:15:30;;;;;;;0.10;0.10;;;;;;;9.96;63.87;100362.25;5117242;27;20047;-74
2023/05/16 02:17:57;;;;;;;0.10;0.10;;;;;;;10.01;63.82;100357.69;5099446;27;20541;-74
2023/05/16 02:20:23;;;;;;;0.10;0.10;;;;;;;10.07;63.62;100351.16;5043638;28;20142;-74
2023/05/16 02:22:50;;;;;;;0.10;0.10;;;;;;;10.14;63.69;100350.13;5109838;27;20051;-74
2023/05/16 02:25:16;;;;;;;0.10;0.10;;;;;;;10.20;63.54;100355.38;5108690;27;20124;-74
2023/05/16 02:27:42;;;;;;;0.20;0.20;;;;;;;10.28;63.40;100359.56;5109359;27;20074;-74
2023/05/16 02:30:10;;;;;;;0.10;0.10;;;;;;;10.28;63.31;100358.75;5087210;28;20074;-74
2023/05/16 02:32:39;;;;;;;0.10;0.10;;;;;;;10.32;63.37;100359.88;5087863;28;20449;-75
2023/05/16 02:35:06;;;;;;;0.20;0.20;;;;;;;10.34;62.83;100361.25;5092288;27;20130;-75
2023/05/16 02:37:33;;;;;;;0.10;0.10;;;;;;;10.36;62.92;100359.09;5115412;27;20228;-74
2023/05/16 02:39:59;;;;;;;0.10;0.10;;;;;;;10.43;63.21;100356.19;5064454;27;20051;-75
2023/05/16 02:42:26;;;;;;;0.17;0.17;;;;;;;10.53;63.07;100363.63;5125993;27;20065;-75
2023/05/16 02:44:52;;;;;;;;;;;;;;;10.58;63.13;100369.13;5123090;27;20473;-74
2023/05/16 02:47:18;;;;;;;0.20;0.20;;;;;;;10.62;62.04;100374.91;5082042;28;19923;-72
2023/05/16 02:49:46;;;;;;;0.17;0.17;;;;;;;10.69;61.18;100369.22;5061781;28;20078;-72
2023/05/16 02:52:12;;;;;;;0.20;0.20;;;;;;;10.80;60.53;100370.97;5096910;28;20048;-70
2023/05/16 02:54:39;;;;;;;0.10;0.10;;;;;;;10.91;59.96;100369.13;5107032;27;20093;-71
2023/05/16 02:57:05;;;;;;;0.10;0.10;;;;;;;10.99;59.71;100363.13;5107503;27;20054;-74
2023/05/16 02:59:31;;;;;;;0.20;0.20;;;;;;;11.09;59.32;100369.78;5105850;28;20500;-75
2023/05/16 03:01:58;;;;;;;0.10;0.10;;;;;;;11.16;59.29;100362.13;5103598;28;20054;-75
2023/05/16 03:04:26;;;;;;;0.20;0.20;;;;;;;11.27;59.02;100376.72;5105303;27;20042;-75
2023/05/16 03:06:55;;;;;;;;;;;;;;;11.34;59.40;100369.09;5114853;27;20395;-74
2023/05/16 03:09:21;;;;;;;0.20;0.20;;;;;;;11.45;58.48;100367.22;5071649;28;19924;-74
2023/05/16 03:11:47;;;;;;;0.15;0.15;;;;;;;11.52;58.16;100361.50;5091934;28;20414;-74
2023/05/16 03:14:14;;;;;;;0.10;0.10;;;;;;;11.62;58.21;100348.66;5116079;27;20047;-75
2023/05/16 03:16:42;;;;;;;0.10;0.10;;;;;;;11.72;58.52;100353.38;5133406;27;20528;-74
2023/05/16 03:19:09;;;;;;;0.20;0.20;;;;;;;11.84;57.99;100361.34;5108011;27;20429;-74
2023/05/16 03:21:35;;;;;;;0.10;0.10;;;;;;;11.90;57.80;100356.72;5108480;27;20064;-74
2023/05/16 03:24:04;;;;;;;0.17;0.17;;;;;;;12.02;57.44;100360.06;5126341;27;20046;-74
2023/05/16 03:26:30;;;;;;;0.17;0.17;;;;;;;12.13;57.58;100357.34;5107194;27;20047;-74
2023/05/16 03:28:56;;;;;;;0.20;0.20;;;;;;;12.19;56.68;100359.00;5143398;27;20043;-74
2023/05/16 03:31:22;;;;;;;0.20;0.20;;;;;;;12.23;56.87;100371.06;5128822;27;20049;-74
2023/05/16 03:33:49;;;;;;;0.20;0.20;;;;;;;12.25;56.35;100363.38;5111190;27;20059;-70
2023/05/16 03:36:15;;;;;;;0.13;0.13;;;;;;;12.33;55.84;100364.75;5117826;27;20047;-73
2023/05/16 03:38:42;;;;;;;0.30;0.20;;;;;;;12.42;55.45;100363.13;5106765;27;20076;-72
2023/05/16 03:41:10;;;;;;;0.10;0.10;;;;;;;12.47;55.63;100362.28;5109174;27;20062;-73
2023/05/16 03:43:36;;;;;;;0.10;0.10;;;;;;;12.58;55.75;100363.13;5127860;27;20137;-72
2023/05/16 03:46:03;;;;;;;0.10;0.10;;;;;;;12.71;55.44;100375.47;5129062;27;20053;-73
2023/05/16 03:48:30;;;;;;;0.10;0.10;;;;;;;12.84;55.03;100376.81;5131100;27;20047;-73
2023/05/16 03:50:56;;;;;;;0.10;0.10;;;;;;;12.91;54.82;100377.38;5124971;27;20055;-75
2023/05/16 03:53:22;;;;;;;0.20;0.20;;;;;;;12.98;54.33;100385.34;5121914;27;20520;-72
2023/05/16 03:55:48;;;;;;;0.10;0.10;;;;;;;13.04;54.05;100387.78;5121460;27;20062;-72
2023/05/16 03:58:16;;;;;;;0.20;0.20;;;;;;;13.09;53.97;100389.69;5146355;27;20051;-72
2023/05/16 04:00:45;;;;;;;0.20;0.20;;;;;;;13.17;53.54;100393.78;5123172;27;20080;-73
2023/05/16 04:03:11;;;;;;;0.10;0.10;;;;;;;13.20;53.37;100396.00;5126321;27;20051;-72
2023/05/16 04:05:37;;;;;;;0.20;0.20;;;;;;;13.26;52.92;100394.88;5125827;27;20073;-73
2023/05/16 04:08:04;;;;;;;0.20;0.20;;;;;;;13.30;51.66;100401.44;5096066;28;20493;-72
2023/05/16 04:10:31;;;;;;;0.10;0.10;;;;;;;13.32;51.32;100390.19;5121057;27;20300;-72
2023/05/16 04:12:57;;;;;;;0.20;0.20;;;;;;;13.34;50.75;100388.00;5126254;27;21216;-72
2023/05/16 04:15:25;;;;;;;0.10;0.10;;;;;;;13.38;50.52;100389.06;5101020;27;20039;-72
2023/05/16 04:17:51;;;;;;;0.17;0.15;;;;;;;13.44;50.60;100395.41;5108463;27;20047;-72
2023/05/16 04:20:18;;;;;;;0.20;0.20;;;;;;;13.49;50.41;100389.88;5127103;27;20054;-72
2023/05/16 04:22:46;;;;;;;0.17;0.17;;;;;;;13.54;50.88;100398.13;5126687;27;20054;-72
2023/05/16 04:25:13;;;;;;;0.20;0.20;;;;;;;13.60;50.81;100396.19;5109650;27;20490;-72
2023/05/16 04:27:39;;;;;;;0.20;0.20;;;;;;;13.68;50.48;100403.03;5120028;27;20522;-72
2023/05/16 04:30:07;;;;;;;0.13;0.13;;;;;;;13.74;49.88;100405.47;5079267;28;20153;-75
2023/05/16 04:32:35;;;;;;;0.10;0.10;;;;;;;13.79;49.63;100403.81;5116936;27;20035;-75
2023/05/16 04:35:02;;;;;;;0.10;0.10;;;;;;;13.80;49.84;100406.25;5073483;27;20047;-75
2023/05/16 04:37:30;;;;;;;0.20;0.20;;;;;;;13.85;49.57;100409.00;5126999;27;20066;-74
2023/05/16 04:39:56;;;;;;;0.20;0.20;;;;;;;13.90;49.17;100405.41;5108211;27;20047;-75
2023/05/16 04:42:23;;;;;;;0.17;0.17;;;;;;;13.92;49.02;100408.69;5124189;27;20051;-75
2023/05/16 04:44:49;;;;;;;0.20;0.20;;;;;;;13.94;48.87;100394.66;5106927;27;20039;-75
2023/05/16 04:47:15;;;;;;;0.20;0.20;;;;;;;14.03;48.76;100402.00;5116556;27;20122;-75
2023/05/16 04:49:43;;;;;;;0.20;0.20;;;;;;;14.09;48.62;100405.56;5125542;27;20043;-74
2023/05/16 04:52:10;;;;;;;0.17;0.17;;;;;;;14.14;48.46;100413.81;5123153;27;20047;-74
2023/05/16 04:54:38;;;;;;;;;;;;;;;14.16;48.12;100408.00;4757795;27;10000317;-74
2023/05/16 04:57:05;;;;;;;0.10;0.10;;;;;;;14.07;47.60;100409.72;5104932;27;19948;-74
2023/05/16 04:59:31;;;;;;;0.20;0.20;;;;;;;14.08;47.94;100414.13;5116692;27;20047;-75
2023/05/16 05:01:57;;;;;;;0.20;0.20;;;;;;;14.07;47.71;100417.97;5133749;27;20043;-75
2023/05/16 05:04:24;;;;;;;0.25;0.10;;;;;;;14.09;47.97;100422.06;5098975;27;20039;-74
2023/05/16 05:06:52;;;;;;;0.20;0.20;;;;;;;14.10;48.01;100417.41;5119909;27;20554;-74
2023/05/16 05:09:19;;;;;;;0.20;0.20;;;;;;;14.17;48.19;100426.97;5118579;27;20051;-74
2023/05/16 05:11:45;;;;;;;0.30;0.28;;;;;;;14.09;48.06;100435.81;5093707;27;20142;-74
2023/05/16 05:14:12;;;;;;;0.20;0.20;;;;;;;14.04;48.38;100435.84;5121482;27;20056;-74
2023/05/16 05:16:38;;;;;;;0.20;0.20;;;;;;;14.10;48.53;100431.16;5120185;27;20102;-74
2023/05/16 05:19:05;;;;;;;0.17;0.17;;;;;;;14.18;48.50;100434.13;5118593;27;20080;-74
2023/05/16 05:21:31;;;;;;;0.20;0.20;;;;;;;14.31;48.17;100431.84;5114431;27;20062;-73
2023/05/16 05:23:59;;;;;;;0.10;0.10;;;;;;;14.35;47.42;100426.59;5099598;27;20293;-73
2023/05/16 05:26:25;;;;;;;0.20;0.20;;;;;;;14.34;47.50;100434.03;5127644;27;20057;-73
2023/05/16 05:28:52;;;;;;;0.20;0.20;;;;;;;14.36;47.33;100429.06;5106609;27;20484;-73
2023/05/16 05:31:18;;;;;;;0.20;0.20;;;;;;;14.42;47.44;100429.84;5102608;27;20510;-73
2023/05/16 05:33:44;;;;;;;0.20;0.20;;;;;;;14.52;46.99;100437.22;5096737;27;20053;-73
2023/05/16 05:36:11;;;;;;;0.20;0.20;;;;;;;14.59;46.56;100440.44;5097343;27;20120;-73
2023/05/16 05:38:38;;;;;;;0.20;0.20;;;;;;;14.61;45.77;100439.06;5119253;27;20133;-72
2023/05/16 05:41:06;;;;;;;0.20;0.20;;;;;;;14.68;45.56;100441.50;5112739;27;20051;-72
2023/05/16 05:43:33;;;;;;;0.20;0.20;;;;;;;14.78;45.87;100440.63;5111369;27;20050;-72
2023/05/16 05:46:01;;;;;;;0.30;0.30;;;;;;;14.90;45.55;100448.50;5058891;27;20544;-73
2023/05/16 05:48:28;;;;;;;0.20;0.20;;;;;;;14.97;44.95;100454.50;5077715;27;20906;-72
2023/05/16 05:50:55;;;;;;;0.20;0.20;;;;;;;15.05;45.07;100438.47;5109842;27;20047;-71
2023/05/16 05:53:22;;;;;;;0.10;0.10;;;;;;;15.14;44.95;100447.75;5075499;28;20597;-72
2023/05/16 05:55:48;;;;;;;0.20;0.20;;;;;;;15.22;44.55;100446.31;5061240;27;20131;-72
2023/05/16 05:58:17;;;;;;;0.20;0.20;;;;;;;15.10;44.06;100432.94;5103458;27;20051;-72
2023/05/16 06:00:43;;;;;;;0.20;0.20;;;;;;;15.25;44.00;100443.78;5105948;27;20134;-72
2023/05/16 06:03:10;;;;;;;0.45;0.20;;;;;;;15.30;43.90;100451.19;5122368;27;20139;-72
2023/05/16 06:05:36;;;;;;;0.20;0.20;;;;;;;15.40;43.49;100447.50;5105368;27;20040;-72
2023/05/16 06:08:02;;;;;;;0.30;0.30;;;;;;;15.44;43.46;100432.84;5120390;27;20050;-73
2023/05/16 06:10:28;;;;;;;0.20;0.20;;;;;;;15.81;42.63;100452.53;5122975;27;20050;-74
2023/05/16 06:12:55;;;;;;;0.20;0.20;;;;;;;15.97;41.78;100455.13;5125027;27;20176;-73
2023/05/16 06:15:24;;;;;;;0.20;0.20;;;;;;;16.07;40.56;100468.81;5093657;27;20627;-73
2023/05/16 06:17:50;;;;;;;0.20;0.20;;;;;;;16.07;39.68;100463.28;5101773;28;20442;-73
2023/05/16 06:20:17;;;;;;;0.10;0.10;;;;;;;16.05;39.64;100450.91;5121856;27;20675;-73
2023/05/16 06:22:43;;;;;;;0.10;0.10;;;;;;;16.23;39.72;100461.13;5122545;27;20158;-73
2023/05/16 06:25:09;;;;;;;0.20;0.20;;;;;;;16.41;38.85;100464.22;5085347;27;20096;-73
2023/05/16 06:27:36;;;;;;;0.20;0.20;;;;;;;16.55;39.25;100462.38;5074935;28;20101;-73
2023/05/16 06:30:04;;;;;;;0.20;0.20;;;;;;;16.73;38.11;100459.88;5089485;27;20054;-73
2023/05/16 06:32:33;;;;;;;0.20;0.20;;;;;;;16.80;37.80;100457.53;5099951;28;20053;-73
2023/05/16 06:35:00;;;;;;;0.30;0.30;;;;;;;16.86;38.06;100456.34;5070942;27;20040;-74
2023/05/16 06:37:26;;;;;;;0.20;0.20;;;;;;;16.99;37.53;100454.78;5096434;28;20733;-72
2023/05/16 06:39:52;;;;;;;0.20;0.20;;;;;;;16.97;37.39;100451.47;5095039;27;20407;-72
2023/05/16 06:42:19;;;;;;;0.20;0.20;;;;;;;17.10;37.62;100454.63;5096437;27;20061;-73
2023/05/16 06:44:45;;;;;;;0.20;0.20;;;;;;;17.15;36.81;100452.56;5098467;27;20560;-72
2023/05/16 06:47:12;;;;;;;0.20;0.20;;;;;;;17.06;37.15;100451.63;5118731;27;20040;-72
2023/05/16 06:49:39;;;;;;;0.25;0.25;;;;;;;17.13;37.60;100457.56;5118015;27;20047;-73
2023/05/16 06:52:06;;;;;;;0.30;0.30;;;;;;;17.41;37.42;100449.34;5128249;27;20517;-73
2023/05/16 06:54:32;;;;;;;0.20;0.20;;;;;;;17.64;35.98;100435.66;5104253;27;20446;-72
2023/05/16 06:56:58;;;;;;;0.20;0.20;;;;;;;17.72;35.15;100443.22;5081456;27;20046;-73
2023/05/16 06:59:25;;;;;;;0.30;0.30;;;;;;;17.69;35.24;100440.22;5116232;27;20716;-73
2023/05/16 07:01:51;;;;;;;0.25;0.25;;;;;;;17.76;35.40;100442.59;5113246;27;20043;-73
2023/05/16 07:04:17;;;;;;;0.20;0.20;;;;;;;17.84;34.64;100434.38;5110980;27;20407;-73
2023/05/16 07:06:45;;;;;;;0.30;0.30;;;;;;;17.97;34.57;100445.75;5103104;28;20418;-73
2023/05/16 07:09:11;;;;;;;0.20;0.20;;;;;;;18.17;33.93;100432.63;5119848;27;20048;-73
2023/05/16 07:11:37;;;;;;;0.32;0.32;;;;;;;18.37;33.75;100439.66;5121344;28;20047;-74
2023/05/16 07:14:04;;;;;;;0.25;0.25;;;;;;;18.47;32.64;100439.44;5126566;27;20477;-73
2023/05/16 07:16:31;;;;;;;0.30;0.30;;;;;;;18.33;32.63;100436.69;5088462;28;20108;-73
2023/05/16 07:18:59;;;;;;;0.30;0.30;;;;;;;18.16;31.61;100436.53;5123269;27;20316;-73
2023/05/16 07:21:25;;;;;;;0.25;0.25;;;;;;;18.18;32.12;100431.50;5118334;27;20356;-73
2023/05/16 07:23:53;;;;;;;0.30;0.30;;;;;;;18.24;32.08;100444.09;5099409;27;20077;-73
2023/05/16 07:26:22;;;;;;;0.30;0.30;;;;;;;18.42;31.96;100443.13;5105572;27;20352;-73
2023/05/16 07:28:49;;;;;;;0.20;0.20;;;;;;;18.58;32.29;100440.00;5130229;27;20674;-73
2023/05/16 07:31:16;;;;;;;;;;;;;;;18.77;32.13;100427.91;5105746;27;20047;-71
2023/05/16 07:33:45;;;;;;;;;;;;;;;18.95;31.36;100435.19;5108091;27;19941;-72
2023/05/16 07:36:13;;;;;;;0.30;0.30;;;;;;;18.96;31.08;100420.22;5123965;27;19923;-71
2023/05/16 07:38:40;;;;;;;0.30;0.30;;;;;;;19.07;30.87;100428.31;5129803;27;20043;-72
2023/05/16 07:41:21;;;;;;;0.22;0.22;;;;;;;19.20;31.14;100423.78;5102741;27;20045;-72
2023/05/16 07:43:47;;;;;;;0.30;0.30;;;;;;;19.49;30.63;100426.06;5126059;27;20046;-73
2023/05/16 07:46:14;;;;;;;0.30;0.30;;;;;;;19.56;30.56;100420.84;5100342;27;20073;-73
2023/05/16 07:48:41;;;;;;;0.30;0.30;;;;;;;19.63;29.91;100427.91;5128608;27;20051;-73
2023/05/16 07:51:07;;;;;;;;;;;;;;;19.71;29.81;100427.09;5125624;27;20362;-74
2023/05/16 07:53:33;;;;;;;0.30;0.30;;;;;;;19.70;30.12;100429.09;5123055;27;19927;-73
2023/05/16 07:56:00;;;;;;;0.30;0.30;;;;;;;19.73;29.66;100421.25;5128474;27;20466;-72
2023/05/16 07:58:28;;;;;;;0.30;0.30;;;;;;;19.66;29.52;100419.75;5091902;27;20077;-72
2023/05/16 08:00:54;;;;;;;0.30;0.30;;;;;;;19.76;29.93;100417.81;5098561;27;20291;-73
2023/05/16 08:03:21;;;;;;;0.30;0.30;;;;;;;19.90;29.24;100429.63;5112437;27;20250;-73
2023/05/16 08:05:48;;;;;;;0.30;0.30;;;;;;;20.27;29.04;100427.41;5129048;27;20079;-73
2023/05/16 08:08:14;;;;;;;0.30;0.30;;;;;;;20.64;28.69;100429.06;5148849;27;20046;-73
2023/05/16 08:10:41;;;;;;;0.30;0.30;;;;;;;20.87;27.75;100437.22;5132524;27;20095;-72
2023/05/16 08:13:07;;;;;;;0.30;0.30;;;;;;;20.98;27.66;100432.97;5122922;27;20646;-72
2023/05/16 08:15:35;;;;;;;0.40;0.40;;;;;;;21.20;27.00;100437.50;5119853;27;20054;-72
2023/05/16 08:18:02;;;;;;;0.32;0.32;;;;;;;20.99;27.03;100423.47;5123175;27;20582;-73
2023/05/16 08:20:28;;;;;;;0.30;0.30;;;;;;;21.08;27.67;100421.50;5124272;27;20038;-73
2023/05/16 08:22:54;;;;;;;0.40;0.40;;;;;;;21.71;26.94;100419.31;5102737;27;20046;-73
2023/05/16 08:25:21;;;;;;;0.50;0.50;;;;;;;21.90;26.62;100416.06;5124163;27;20426;-73
2023/05/16 08:27:50;;;;;;;0.40;0.40;;;;;;;22.45;25.44;100416.97;5109023;27;20239;-73
2023/05/16 08:30:16;;;;;;;0.40;0.40;;;;;;;22.50;25.18;100418.78;5122041;27;20043;-73
2023/05/16 08:32:44;;;;;;;0.90;0.47;;;;;;;22.60;24.49;100414.75;5121323;27;20128;-73
2023/05/16 08:35:11;;;;;;;0.40;0.40;;;;;;;22.72;24.53;100408.44;5095153;27;20301;-73
2023/05/16 08:37:38;;;;;;;0.57;0.50;;;;;;;23.00;24.16;100422.56;5121981;27;20347;-73
2023/05/16 08:40:09;;;;;;;0.40;0.40;;;;;;;23.29;23.00;100415.22;5130327;27;20039;-73
2023/05/16 08:42:36;;;;;;;0.47;0.47;;;;;;;23.05;23.20;100415.97;5126112;27;20043;-73
2023/05/16 08:45:04;;;;;;;0.50;0.50;;;;;;;23.04;23.42;100426.28;5126236;27;20514;-73
2023/05/16 08:47:31;;;;;;;0.40;0.40;;;;;;;23.00;23.17;100402.22;5109409;27;20180;-73
2023/05/16 08:50:02;;;;;;;0.50;0.50;;;;;;;23.44;22.93;100401.75;5111436;27;20046;-73
2023/05/16 08:52:32;;;;;;;0.50;0.50;;;;;;;23.79;22.49;100406.84;5083246;27;20043;-73
2023/05/16 08:55:02;;;;;;;0.50;0.50;;;;;;;23.65;22.23;100405.22;5089794;27;20036;-73
2023/05/16 08:57:32;;;;;;;0.60;0.60;;;;;;;23.90;22.56;100396.84;5101663;27;20043;-73
2023/05/16 08:59:59;;;;;;;0.50;0.50;;;;;;;24.01;22.27;100379.59;5117412;27;20076;-74
2023/05/16 09:02:26;;;;;;;0.52;0.52;;;;;;;24.31;22.12;100401.66;5095900;27;20123;-73
2023/05/16 09:04:56;;;;;;;0.50;0.50;;;;;;;24.80;21.78;100403.47;5147747;27;20045;-73
2023/05/16 09:07:24;;;;;;;0.75;0.60;;;;;;;25.10;20.56;100402.22;5144791;27;20043;-73
2023/05/16 09:09:50;;;;;;;0.60;0.60;;;;;;;24.81;21.21;100404.25;5148043;27;20607;-73
2023/05/16 09:12:16;;;;;;;0.60;0.60;;;;;;;24.90;21.40;100402.13;5109068;27;20043;-73
2023/05/16 09:14:44;;;;;;;0.60;0.60;;;;;;;25.40;21.54;100390.59;5113760;27;20058;-73
2023/05/16 09:17:11;;;;;;;0.60;0.60;;;;;;;26.31;20.20;100393.50;5118754;27;20453;-73
2023/05/16 09:19:39;;;;;;;0.60;0.60;;;;;;;26.42;19.90;100393.72;5082316;27;20100;-74
2023/05/16 09:22:06;;;;;;;0.73;0.70;;;;;;;26.23;19.32;100386.94;5125147;27;20303;-73
2023/05/16 09:24:37;;;;;;;0.70;0.70;;;;;;;26.00;19.53;100395.22;5106371;27;20421;-73
2023/05/16 09:27:07;;;;;;;0.75;0.70;;;;;;;25.93;19.39;100389.47;5124828;27;20459;-73
2023/05/16 09:29:33;;;;;;;0.60;0.60;;;;;;;25.51;19.48;100377.72;5091238;27;20035;-73
2023/05/16 09:32:07;;;;;;;0.70;0.70;;;;;;;25.98;19.38;100391.97;5118441;27;20452;-74
2023/05/16 09:34:38;;;;;;;0.68;0.68;;;;;;;26.37;19.01;100389.22;5091538;27;20066;-74
2023/05/16 09:37:06;;;;;;;0.70;0.70;;;;;;;26.28;18.95;100394.25;5120832;27;20047;-73
2023/05/16 09:39:32;;;;;;;0.70;0.70;;;;;;;26.26;18.79;100382.59;5106134;27;20448;-74
2023/05/16 09:42:00;;;;;;;0.70;0.70;;;;;;;26.41;18.73;100392.94;5104555;27;20429;-75
2023/05/16 09:44:27;;;;;;;0.80;0.80;;;;;;;25.74;19.47;100397.44;5116552;27;20506;-74
2023/05/16 09:46:54;;;;;;;0.70;0.70;;;;;;;25.22;20.31;100393.75;5100937;27;20041;-73
2023/05/16 09:49:21;;;;;;;0.70;0.70;;;;;;;25.46;20.01;100377.97;5099010;27;20074;-74
2023/05/16 09:51:47;;;;;;;0.80;0.80;;;;;;;26.03;19.59;100378.50;5114656;27;20192;-74
2023/05/16 09:54:14;;;;;;;0.70;0.70;;;;;;;26.78;18.46;100372.00;5117269;27;20139;-73
2023/05/16 09:56:49;;;;;;;0.77;0.77;;;;;;;26.55;18.79;100366.38;5111057;27;20531;-74
2023/05/16 09:59:16;;;;;;;0.80;0.80;;;;;;;26.99;18.66;100373.59;5126206;27;20108;-73
2023/05/16 10:01:43;;;;;;;0.85;0.85;;;;;;;27.08;18.16;100376.16;5126750;27;20082;-73
2023/05/16 10:04:12;;;;;;;0.80;0.80;;;;;;;27.08;18.26;100365.72;5116106;27;20138;-72
2023/05/16 10:06:41;;;;;;;0.80;0.80;;;;;;;26.80;18.72;100360.41;5115096;27;20523;-73
2023/05/16 10:09:10;;;;;;;0.90;0.90;;;;;;;27.28;18.55;100358.06;5120134;27;20058;-73
2023/05/16 10:11:37;;;;;;;0.90;0.90;;;;;;;28.14;17.95;100354.91;5101351;27;20043;-72
2023/05/16 10:14:04;;;;;;;;;;;;;;;28.16;17.58;100355.34;5124227;27;20129;-72
2023/05/16 10:16:33;;;;;;;0.90;0.90;;;;;;;28.07;18.01;100351.19;5121658;27;20539;-72
2023/05/16 10:19:02;;;;;;;0.90;0.90;;;;;;;27.92;18.12;100359.44;5105317;27;20149;-72
2023/05/16 10:21:30;;;;;;;0.90;0.90;;;;;;;28.31;17.92;100356.31;5099987;27;20050;-72
2023/05/16 10:24:01;;;;;;;0.98;0.98;;;;;;;28.43;17.96;100346.84;5112862;27;20059;-72
2023/05/16 10:26:29;;;;;;;1.00;1.00;;;;;;;28.40;17.32;100347.59;5070166;27;20496;-73
2023/05/16 10:28:55;;;;;;;1.00;1.00;;;;;;;28.20;17.80;100354.59;5103705;27;20456;-73
2023/05/16 10:31:23;;;;;;;1.00;1.00;;;;;;;28.01;18.00;100333.84;5120764;27;20430;-73
2023/05/16 10:33:52;;;;;;;1.02;1.02;;;;;;;28.27;17.78;100333.00;5119579;27;20134;-73
2023/05/16 10:36:19;;;;;;;1.10;1.10;;;;;;;28.76;17.74;100335.91;5125258;27;20047;-73
2023/05/16 10:38:45;;;;;;;;;;;;;;;29.18;17.60;100333.09;5117176;27;20054;-73
2023/05/16 10:41:12;;;;;;;1.02;1.02;;;;;;;29.66;16.75;100329.41;5122453;27;19923;-73
2023/05/16 10:43:39;;;;;;;1.30;1.20;;;;;;;29.97;16.62;100330.78;5122561;27;20124;-73
2023/05/16 10:46:10;;;;;;;1.10;1.10;;;;;;;29.22;17.15;100328.28;5121820;27;20167;-73
2023/05/16 10:48:37;;;;;;;1.30;1.20;;;;;;;29.12;17.37;100336.28;5102163;27;20079;-73
2023/05/16 10:51:33;;;;;;;1.10;1.10;;;;;;;28.81;17.97;100312.28;5095278;27;20050;-73
2023/05/16 10:54:05;;;;;;;1.15;1.10;;;;;;;29.48;17.25;100310.41;5115140;27;20451;-72
2023/05/16 10:56:32;;;;;;;1.17;1.17;;;;;;;30.15;16.64;100310.34;5104391;27;20044;-72
2023/05/16 10:58:58;;;;;;;1.10;1.10;;;;;;;30.45;16.28;100302.81;5100162;27;20059;-73
2023/05/16 11:01:26;;;;;;;1.27;1.20;;;;;;;30.16;16.41;100309.16;5094281;27;20062;-73
2023/05/16 11:04:07;;;;;;;1.20;1.20;;;;;;;30.22;16.54;100303.94;5126324;27;20074;-73
2023/05/16 11:06:44;;;;;;;1.20;1.20;;;;;;;29.87;16.86;100306.19;5086689;27;20070;-74
2023/05/16 11:09:28;;;;;;;1.20;1.20;;;;;;;30.03;17.03;100300.25;5091153;27;20708;-74
2023/05/16 11:12:00;;;;;;;1.30;1.20;;;;;;;30.83;16.49;100295.63;5121665;27;20054;-73
2023/05/16 11:14:28;;;;;;;1.30;1.20;;;;;;;31.01;15.64;100303.28;5085042;27;20044;-73
2023/05/16 11:17:01;;;;;;;1.30;1.20;;;;;;;30.94;15.82;100301.25;5123477;27;20063;-73
2023/05/16 11:19:33;;;;;;;1.30;1.20;;;;;;;30.98;15.66;100298.41;5119605;27;20073;-73
2023/05/16 11:22:22;;;;;;;1.30;1.20;;;;;;;31.31;15.64;100312.53;5096241;27;20088;-74
2023/05/16 11:24:51;;;;;;;1.23;1.20;;;;;;;30.72;15.69;100302.44;5122138;27;20605;-73
2023/05/16 11:27:22;;;;;;;1.30;1.20;;;;;;;30.49;15.80;100301.56;5119904;27;20416;-73
2023/05/16 11:29:49;;;;;;;1.30;1.20;;;;;;;30.37;16.43;100308.41;5069929;27;20134;-72